sensor_id;sensor_type;location;lat;lon;timestamp;P1;durP1;ratioP1;P2;durP2;ratioP2
28481;SDS011;15703;49.588;6.260;2023-05-20T00:01:57;1.50;;;1.40;;
28481;SDS011;15703;49.588;6.260;2023-05-20T00:04:19;2.33;;;1.63;;
28481;SDS011;15703;49.588;6.260;2023-05-20T00:06:42;1.70;;;1.60;;
28481;SDS011;15703;49.588;6.260;2023-05-20T00:09:04;6.30;;;1.70;;
28481;SDS011;15703;49.588;6.260;2023-05-20T00:11:27;1.42;;;1.33;;
28481;SDS011;15703;49.588;6.260;2023-05-20T00:13:49;1.73;;;1.63;;
28481;SDS011;15703;49.588;6.260;2023-05-20T00:16:12;3.67;;;2.00;;
28481;SDS011;15703;49.588;6.260;2023-05-20T00:18:34;2.53;;;1.87;;
28481;SDS011;15703;49.588;6.260;2023-05-20T00:20:57;1.80;;;1.70;;
28481;SDS011;15703;49.588;6.260;2023-05-20T00:23:19;1.60;;;1.43;;
28481;SDS011;15703;49.588;6.260;2023-05-20T00:25:42;1.50;;;1.40;;
28481;SDS011;15703;49.588;6.260;2023-05-20T00:28:05;2.17;;;1.50;;
28481;SDS011;15703;49.588;6.260;2023-05-20T00:30:27;2.10;;;1.87;;
28481;SDS011;15703;49.588;6.260;2023-05-20T00:32:50;1.70;;;1.60;;
28481;SDS011;15703;49.588;6.260;2023-05-20T00:35:13;3.07;;;1.40;;
28481;SDS011;15703;49.588;6.260;2023-05-20T00:37:35;3.47;;;1.60;;
28481;SDS011;15703;49.588;6.260;2023-05-20T00:39:57;1.40;;;1.30;;
28481;SDS011;15703;49.588;6.260;2023-05-20T00:42:24;4.20;;;1.93;;
28481;SDS011;15703;49.588;6.260;2023-05-20T00:44:47;4.80;;;2.07;;
28481;SDS011;15703;49.588;6.260;2023-05-20T00:47:09;1.87;;;1.60;;
28481;SDS011;15703;49.588;6.260;2023-05-20T00:49:32;2.27;;;1.50;;
28481;SDS011;15703;49.588;6.260;2023-05-20T00:51:54;3.23;;;1.70;;
28481;SDS011;15703;49.588;6.260;2023-05-20T00:54:19;3.87;;;1.50;;
28481;SDS011;15703;49.588;6.260;2023-05-20T00:56:42;1.60;;;1.40;;
28481;SDS011;15703;49.588;6.260;2023-05-20T00:59:05;2.67;;;1.95;;
28481;SDS011;15703;49.588;6.260;2023-05-20T01:01:28;4.37;;;1.83;;
28481;SDS011;15703;49.588;6.260;2023-05-20T01:03:51;3.03;;;1.70;;
28481;SDS011;15703;49.588;6.260;2023-05-20T01:06:13;1.27;;;1.17;;
28481;SDS011;15703;49.588;6.260;2023-05-20T01:08:35;2.73;;;1.60;;
28481;SDS011;15703;49.588;6.260;2023-05-20T01:11:03;3.97;;;1.50;;
28481;SDS011;15703;49.588;6.260;2023-05-20T01:13:27;2.43;;;1.57;;
28481;SDS011;15703;49.588;6.260;2023-05-20T01:15:50;4.80;;;1.97;;
28481;SDS011;15703;49.588;6.260;2023-05-20T01:18:14;2.30;;;1.40;;
28481;SDS011;15703;49.588;6.260;2023-05-20T01:20:41;2.00;;;1.60;;
28481;SDS011;15703;49.588;6.260;2023-05-20T01:23:04;2.00;;;1.80;;
28481;SDS011;15703;49.588;6.260;2023-05-20T01:25:29;2.47;;;1.63;;
28481;SDS011;15703;49.588;6.260;2023-05-20T01:27:53;2.67;;;1.67;;
28481;SDS011;15703;49.588;6.260;2023-05-20T01:30:16;3.30;;;1.80;;
28481;SDS011;15703;49.588;6.260;2023-05-20T01:32:46;2.83;;;1.80;;
28481;SDS011;15703;49.588;6.260;2023-05-20T01:35:09;2.13;;;1.70;;
28481;SDS011;15703;49.588;6.260;2023-05-20T01:37:33;2.23;;;1.83;;
28481;SDS011;15703;49.588;6.260;2023-05-20T01:39:56;2.13;;;1.90;;
28481;SDS011;15703;49.588;6.260;2023-05-20T01:42:19;3.00;;;2.00;;
28481;SDS011;15703;49.588;6.260;2023-05-20T01:44:42;5.00;;;1.80;;
28481;SDS011;15703;49.588;6.260;2023-05-20T01:47:05;3.20;;;1.80;;
28481;SDS011;15703;49.588;6.260;2023-05-20T01:49:27;2.33;;;1.97;;
28481;SDS011;15703;49.588;6.260;2023-05-20T01:51:49;3.20;;;1.97;;
28481;SDS011;15703;49.588;6.260;2023-05-20T01:54:12;2.63;;;1.53;;
28481;SDS011;15703;49.588;6.260;2023-05-20T01:56:34;1.90;;;1.80;;
28481;SDS011;15703;49.588;6.260;2023-05-20T01:58:56;1.90;;;1.70;;
28481;SDS011;15703;49.588;6.260;2023-05-20T02:01:19;2.93;;;1.70;;
28481;SDS011;15703;49.588;6.260;2023-05-20T02:03:41;2.20;;;1.80;;
28481;SDS011;15703;49.588;6.260;2023-05-20T02:06:03;4.47;;;2.10;;
28481;SDS011;15703;49.588;6.260;2023-05-20T02:08:26;3.23;;;1.90;;
28481;SDS011;15703;49.588;6.260;2023-05-20T02:10:48;2.10;;;1.70;;
28481;SDS011;15703;49.588;6.260;2023-05-20T02:13:11;3.43;;;1.97;;
28481;SDS011;15703;49.588;6.260;2023-05-20T02:15:39;3.73;;;1.80;;
28481;SDS011;15703;49.588;6.260;2023-05-20T02:18:02;2.20;;;1.90;;
28481;SDS011;15703;49.588;6.260;2023-05-20T02:20:26;2.77;;;1.77;;
28481;SDS011;15703;49.588;6.260;2023-05-20T02:22:48;1.87;;;1.70;;
28481;SDS011;15703;49.588;6.260;2023-05-20T02:25:11;2.30;;;1.80;;
28481;SDS011;15703;49.588;6.260;2023-05-20T02:27:33;2.10;;;1.90;;
28481;SDS011;15703;49.588;6.260;2023-05-20T02:29:56;3.90;;;2.00;;
28481;SDS011;15703;49.588;6.260;2023-05-20T02:32:18;2.53;;;1.70;;
28481;SDS011;15703;49.588;6.260;2023-05-20T02:34:42;4.70;;;2.00;;
28481;SDS011;15703;49.588;6.260;2023-05-20T02:37:04;7.53;;;2.10;;
28481;SDS011;15703;49.588;6.260;2023-05-20T02:39:26;3.30;;;1.63;;
28481;SDS011;15703;49.588;6.260;2023-05-20T02:41:49;3.43;;;2.20;;
28481;SDS011;15703;49.588;6.260;2023-05-20T02:44:11;2.13;;;1.90;;
28481;SDS011;15703;49.588;6.260;2023-05-20T02:46:33;3.57;;;1.90;;
28481;SDS011;15703;49.588;6.260;2023-05-20T02:48:56;2.83;;;2.13;;
28481;SDS011;15703;49.588;6.260;2023-05-20T02:51:18;3.57;;;1.80;;
28481;SDS011;15703;49.588;6.260;2023-05-20T02:53:41;2.30;;;1.90;;
28481;SDS011;15703;49.588;6.260;2023-05-20T02:56:04;3.80;;;1.80;;
28481;SDS011;15703;49.588;6.260;2023-05-20T02:58:26;2.40;;;1.93;;
28481;SDS011;15703;49.588;6.260;2023-05-20T03:00:49;2.40;;;2.03;;
28481;SDS011;15703;49.588;6.260;2023-05-20T03:03:13;2.83;;;1.97;;
28481;SDS011;15703;49.588;6.260;2023-05-20T03:05:36;2.87;;;1.80;;
28481;SDS011;15703;49.588;6.260;2023-05-20T03:07:58;2.40;;;2.20;;
28481;SDS011;15703;49.588;6.260;2023-05-20T03:10:21;3.30;;;2.03;;
28481;SDS011;15703;49.588;6.260;2023-05-20T03:12:44;2.20;;;1.97;;
28481;SDS011;15703;49.588;6.260;2023-05-20T03:15:06;3.17;;;1.90;;
28481;SDS011;15703;49.588;6.260;2023-05-20T03:17:30;3.30;;;1.83;;
28481;SDS011;15703;49.588;6.260;2023-05-20T03:19:52;2.00;;;1.80;;
28481;SDS011;15703;49.588;6.260;2023-05-20T03:22:15;5.00;;;2.23;;
28481;SDS011;15703;49.588;6.260;2023-05-20T03:24:38;3.90;;;2.20;;
28481;SDS011;15703;49.588;6.260;2023-05-20T03:27:00;2.40;;;2.00;;
28481;SDS011;15703;49.588;6.260;2023-05-20T03:29:23;1.90;;;1.80;;
28481;SDS011;15703;49.588;6.260;2023-05-20T03:31:45;4.80;;;1.87;;
28481;SDS011;15703;49.588;6.260;2023-05-20T03:34:08;2.33;;;1.87;;
28481;SDS011;15703;49.588;6.260;2023-05-20T03:36:30;3.37;;;2.03;;
28481;SDS011;15703;49.588;6.260;2023-05-20T03:38:53;3.30;;;2.23;;
28481;SDS011;15703;49.588;6.260;2023-05-20T03:41:15;3.30;;;2.27;;
28481;SDS011;15703;49.588;6.260;2023-05-20T03:43:38;2.40;;;2.20;;
28481;SDS011;15703;49.588;6.260;2023-05-20T03:46:00;2.63;;;2.07;;
28481;SDS011;15703;49.588;6.260;2023-05-20T03:48:23;2.63;;;2.20;;
28481;SDS011;15703;49.588;6.260;2023-05-20T03:50:46;3.60;;;2.10;;
28481;SDS011;15703;49.588;6.260;2023-05-20T03:53:10;2.60;;;1.97;;
28481;SDS011;15703;49.588;6.260;2023-05-20T03:55:34;2.50;;;2.03;;
28481;SDS011;15703;49.588;6.260;2023-05-20T03:57:57;2.43;;;2.20;;
28481;SDS011;15703;49.588;6.260;2023-05-20T04:00:20;5.13;;;2.30;;
28481;SDS011;15703;49.588;6.260;2023-05-20T04:02:43;2.43;;;2.20;;
28481;SDS011;15703;49.588;6.260;2023-05-20T04:05:09;3.20;;;2.23;;
28481;SDS011;15703;49.588;6.260;2023-05-20T04:07:32;6.67;;;2.30;;
28481;SDS011;15703;49.588;6.260;2023-05-20T04:09:54;3.13;;;2.20;;
28481;SDS011;15703;49.588;6.260;2023-05-20T04:12:17;2.20;;;2.00;;
28481;SDS011;15703;49.588;6.260;2023-05-20T04:14:40;4.67;;;2.03;;
28481;SDS011;15703;49.588;6.260;2023-05-20T04:17:03;2.57;;;2.20;;
28481;SDS011;15703;49.588;6.260;2023-05-20T04:19:26;4.47;;;2.10;;
28481;SDS011;15703;49.588;6.260;2023-05-20T04:21:49;2.87;;;2.10;;
28481;SDS011;15703;49.588;6.260;2023-05-20T04:24:11;2.87;;;1.97;;
28481;SDS011;15703;49.588;6.260;2023-05-20T04:26:33;3.03;;;2.37;;
28481;SDS011;15703;49.588;6.260;2023-05-20T04:28:56;3.70;;;2.00;;
28481;SDS011;15703;49.588;6.260;2023-05-20T04:31:19;2.80;;;2.37;;
28481;SDS011;15703;49.588;6.260;2023-05-20T04:33:47;2.87;;;2.37;;
28481;SDS011;15703;49.588;6.260;2023-05-20T04:36:10;1.90;;;1.80;;
28481;SDS011;15703;49.588;6.260;2023-05-20T04:38:37;2.93;;;2.30;;
28481;SDS011;15703;49.588;6.260;2023-05-20T04:41:00;3.50;;;2.07;;
28481;SDS011;15703;49.588;6.260;2023-05-20T04:43:24;3.50;;;1.80;;
28481;SDS011;15703;49.588;6.260;2023-05-20T04:46:06;5.03;;;2.13;;
28481;SDS011;15703;49.588;6.260;2023-05-20T04:48:29;2.07;;;1.87;;
28481;SDS011;15703;49.588;6.260;2023-05-20T04:50:51;3.60;;;1.80;;
28481;SDS011;15703;49.588;6.260;2023-05-20T04:53:15;2.10;;;1.90;;
28481;SDS011;15703;49.588;6.260;2023-05-20T04:55:37;3.15;;;2.08;;
28481;SDS011;15703;49.588;6.260;2023-05-20T04:58:00;1.95;;;1.70;;
28481;SDS011;15703;49.588;6.260;2023-05-20T05:00:23;3.15;;;1.58;;
28481;SDS011;15703;49.588;6.260;2023-05-20T05:02:47;2.28;;;1.98;;
28481;SDS011;15703;49.588;6.260;2023-05-20T05:05:10;3.90;;;1.92;;
28481;SDS011;15703;49.588;6.260;2023-05-20T05:07:33;2.30;;;2.05;;
28481;SDS011;15703;49.588;6.260;2023-05-20T05:09:56;1.83;;;1.73;;
28481;SDS011;15703;49.588;6.260;2023-05-20T05:12:51;2.55;;;1.63;;
28481;SDS011;15703;49.588;6.260;2023-05-20T05:15:15;3.33;;;1.50;;
28481;SDS011;15703;49.588;6.260;2023-05-20T05:17:47;1.80;;;1.58;;
28481;SDS011;15703;49.588;6.260;2023-05-20T05:20:10;2.47;;;2.00;;
28481;SDS011;15703;49.588;6.260;2023-05-20T05:22:33;1.75;;;1.40;;
28481;SDS011;15703;49.588;6.260;2023-05-20T05:24:57;3.38;;;1.75;;
28481;SDS011;15703;49.588;6.260;2023-05-20T05:27:20;1.70;;;1.58;;
28481;SDS011;15703;49.588;6.260;2023-05-20T05:29:53;3.78;;;1.70;;
28481;SDS011;15703;49.588;6.260;2023-05-20T05:32:16;2.80;;;1.77;;
28481;SDS011;15703;49.588;6.260;2023-05-20T05:34:39;1.70;;;1.60;;
28481;SDS011;15703;49.588;6.260;2023-05-20T05:37:02;1.70;;;1.60;;
28481;SDS011;15703;49.588;6.260;2023-05-20T05:43:57;2.95;;;2.05;;
28481;SDS011;15703;49.588;6.260;2023-05-20T05:46:46;2.67;;;1.85;;
28481;SDS011;15703;49.588;6.260;2023-05-20T05:49:37;2.25;;;1.80;;
28481;SDS011;15703;49.588;6.260;2023-05-20T05:55:37;1.60;;;1.50;;
28481;SDS011;15703;49.588;6.260;2023-05-20T05:58:11;2.97;;;2.10;;
28481;SDS011;15703;49.588;6.260;2023-05-20T06:00:35;2.55;;;1.88;;
28481;SDS011;15703;49.588;6.260;2023-05-20T06:03:01;5.78;;;2.28;;
28481;SDS011;15703;49.588;6.260;2023-05-20T06:05:31;2.75;;;1.75;;
28481;SDS011;15703;49.588;6.260;2023-05-20T06:07:54;2.35;;;2.00;;
28481;SDS011;15703;49.588;6.260;2023-05-20T06:10:18;2.03;;;1.83;;
28481;SDS011;15703;49.588;6.260;2023-05-20T06:12:52;2.15;;;1.95;;
28481;SDS011;15703;49.588;6.260;2023-05-20T06:15:20;3.42;;;2.13;;
28481;SDS011;15703;49.588;6.260;2023-05-20T06:17:42;3.63;;;1.92;;
28481;SDS011;15703;49.588;6.260;2023-05-20T06:20:57;2.17;;;1.90;;
28481;SDS011;15703;49.588;6.260;2023-05-20T06:23:37;1.88;;;1.73;;
28481;SDS011;15703;49.588;6.260;2023-05-20T06:26:48;4.07;;;2.25;;
28481;SDS011;15703;49.588;6.260;2023-05-20T06:33:33;5.05;;;2.78;;
28481;SDS011;15703;49.588;6.260;2023-05-20T06:36:02;4.22;;;1.98;;
28481;SDS011;15703;49.588;6.260;2023-05-20T06:38:41;2.72;;;2.15;;
28481;SDS011;15703;49.588;6.260;2023-05-20T06:41:43;2.17;;;1.73;;
28481;SDS011;15703;49.588;6.260;2023-05-20T06:44:21;4.82;;;1.95;;
28481;SDS011;15703;49.588;6.260;2023-05-20T06:46:52;2.58;;;2.25;;
28481;SDS011;15703;49.588;6.260;2023-05-20T06:49:15;3.53;;;1.98;;
28481;SDS011;15703;49.588;6.260;2023-05-20T06:51:38;3.28;;;2.08;;
28481;SDS011;15703;49.588;6.260;2023-05-20T06:54:26;2.60;;;1.92;;
28481;SDS011;15703;49.588;6.260;2023-05-20T07:01:24;2.70;;;1.80;;
28481;SDS011;15703;49.588;6.260;2023-05-20T07:03:48;2.30;;;2.10;;
28481;SDS011;15703;49.588;6.260;2023-05-20T07:06:12;4.10;;;2.00;;
28481;SDS011;15703;49.588;6.260;2023-05-20T07:08:36;3.65;;;2.13;;
28481;SDS011;15703;49.588;6.260;2023-05-20T07:11:05;2.50;;;2.00;;
28481;SDS011;15703;49.588;6.260;2023-05-20T07:13:47;4.10;;;1.77;;
28481;SDS011;15703;49.588;6.260;2023-05-20T07:20:12;3.38;;;2.30;;
28481;SDS011;15703;49.588;6.260;2023-05-20T07:23:07;2.10;;;1.90;;
28481;SDS011;15703;49.588;6.260;2023-05-20T07:25:37;3.90;;;1.80;;
28481;SDS011;15703;49.588;6.260;2023-05-20T07:28:02;3.35;;;2.10;;
28481;SDS011;15703;49.588;6.260;2023-05-20T07:30:26;3.80;;;2.08;;
28481;SDS011;15703;49.588;6.260;2023-05-20T07:33:04;3.83;;;2.30;;
28481;SDS011;15703;49.588;6.260;2023-05-20T07:35:27;4.95;;;2.13;;
28481;SDS011;15703;49.588;6.260;2023-05-20T07:37:50;3.10;;;2.45;;
28481;SDS011;15703;49.588;6.260;2023-05-20T07:40:13;2.85;;;2.20;;
28481;SDS011;15703;49.588;6.260;2023-05-20T07:50:40;4.07;;;2.47;;
28481;SDS011;15703;49.588;6.260;2023-05-20T07:53:04;5.10;;;2.28;;
28481;SDS011;15703;49.588;6.260;2023-05-20T07:55:33;2.88;;;2.47;;
28481;SDS011;15703;49.588;6.260;2023-05-20T08:00:57;7.90;;;2.65;;
28481;SDS011;15703;49.588;6.260;2023-05-20T08:03:28;2.20;;;1.88;;
28481;SDS011;15703;49.588;6.260;2023-05-20T08:06:01;6.25;;;2.30;;
28481;SDS011;15703;49.588;6.260;2023-05-20T08:08:25;5.95;;;2.70;;
28481;SDS011;15703;49.588;6.260;2023-05-20T08:10:55;4.53;;;2.30;;
28481;SDS011;15703;49.588;6.260;2023-05-20T08:13:19;6.90;;;2.60;;
28481;SDS011;15703;49.588;6.260;2023-05-20T08:19:13;4.93;;;2.17;;
28481;SDS011;15703;49.588;6.260;2023-05-20T08:21:42;4.65;;;2.70;;
28481;SDS011;15703;49.588;6.260;2023-05-20T08:24:05;2.97;;;2.65;;
28481;SDS011;15703;49.588;6.260;2023-05-20T08:26:35;2.47;;;2.28;;
28481;SDS011;15703;49.588;6.260;2023-05-20T08:28:59;2.75;;;2.50;;
28481;SDS011;15703;49.588;6.260;2023-05-20T08:31:25;2.60;;;2.15;;
28481;SDS011;15703;49.588;6.260;2023-05-20T08:33:47;2.60;;;2.38;;
28481;SDS011;15703;49.588;6.260;2023-05-20T08:36:58;3.42;;;2.03;;
28481;SDS011;15703;49.588;6.260;2023-05-20T08:39:39;2.97;;;2.30;;
28481;SDS011;15703;49.588;6.260;2023-05-20T08:42:02;2.75;;;2.40;;
28481;SDS011;15703;49.588;6.260;2023-05-20T08:44:47;2.92;;;2.30;;
28481;SDS011;15703;49.588;6.260;2023-05-20T08:47:12;3.97;;;2.40;;
28481;SDS011;15703;49.588;6.260;2023-05-20T08:49:34;3.45;;;2.33;;
28481;SDS011;15703;49.588;6.260;2023-05-20T08:52:46;3.10;;;2.80;;
28481;SDS011;15703;49.588;6.260;2023-05-20T09:03:21;4.72;;;2.55;;
28481;SDS011;15703;49.588;6.260;2023-05-20T09:06:44;3.20;;;2.83;;
28481;SDS011;15703;49.588;6.260;2023-05-20T09:10:08;3.88;;;2.30;;
28481;SDS011;15703;49.588;6.260;2023-05-20T09:13:10;3.05;;;2.45;;
28481;SDS011;15703;49.588;6.260;2023-05-20T09:15:35;4.20;;;2.58;;
28481;SDS011;15703;49.588;6.260;2023-05-20T09:18:05;4.50;;;2.72;;
28481;SDS011;15703;49.588;6.260;2023-05-20T09:21:13;3.60;;;2.75;;
28481;SDS011;15703;49.588;6.260;2023-05-20T09:38:51;4.30;;;2.30;;
28481;SDS011;15703;49.588;6.260;2023-05-20T09:42:11;9.82;;;3.15;;
28481;SDS011;15703;49.588;6.260;2023-05-20T09:45:23;3.00;;;2.70;;
28481;SDS011;15703;49.588;6.260;2023-05-20T09:48:04;3.70;;;2.60;;
28481;SDS011;15703;49.588;6.260;2023-05-20T09:50:31;4.68;;;2.95;;
28481;SDS011;15703;49.588;6.260;2023-05-20T09:53:08;3.63;;;2.42;;
28481;SDS011;15703;49.588;6.260;2023-05-20T09:55:33;3.72;;;2.53;;
28481;SDS011;15703;49.588;6.260;2023-05-20T09:57:56;2.78;;;2.58;;
28481;SDS011;15703;49.588;6.260;2023-05-20T10:00:21;3.47;;;2.40;;
28481;SDS011;15703;49.588;6.260;2023-05-20T10:02:59;4.80;;;2.40;;
28481;SDS011;15703;49.588;6.260;2023-05-20T10:10:13;2.20;;;2.00;;
28481;SDS011;15703;49.588;6.260;2023-05-20T10:12:44;3.20;;;2.58;;
28481;SDS011;15703;49.588;6.260;2023-05-20T10:15:17;2.85;;;2.10;;
28481;SDS011;15703;49.588;6.260;2023-05-20T10:20:18;3.40;;;2.42;;
28481;SDS011;15703;49.588;6.260;2023-05-20T10:22:41;2.88;;;2.40;;
28481;SDS011;15703;49.588;6.260;2023-05-20T10:25:08;2.15;;;1.95;;
28481;SDS011;15703;49.588;6.260;2023-05-20T10:27:41;3.30;;;2.25;;
28481;SDS011;15703;49.588;6.260;2023-05-20T10:30:13;2.85;;;2.30;;
28481;SDS011;15703;49.588;6.260;2023-05-20T10:32:36;6.00;;;2.50;;
28481;SDS011;15703;49.588;6.260;2023-05-20T10:35:01;3.20;;;2.50;;
28481;SDS011;15703;49.588;6.260;2023-05-20T10:37:26;2.70;;;2.38;;
28481;SDS011;15703;49.588;6.260;2023-05-20T10:39:48;3.58;;;2.30;;
28481;SDS011;15703;49.588;6.260;2023-05-20T10:42:10;3.42;;;2.45;;
28481;SDS011;15703;49.588;6.260;2023-05-20T10:44:46;2.30;;;2.10;;
28481;SDS011;15703;49.588;6.260;2023-05-20T10:47:09;2.58;;;2.22;;
28481;SDS011;15703;49.588;6.260;2023-05-20T10:49:35;4.05;;;2.80;;
28481;SDS011;15703;49.588;6.260;2023-05-20T10:51:58;3.78;;;2.10;;
28481;SDS011;15703;49.588;6.260;2023-05-20T10:54:24;4.90;;;2.47;;
28481;SDS011;15703;49.588;6.260;2023-05-20T10:56:51;5.00;;;2.63;;
28481;SDS011;15703;49.588;6.260;2023-05-20T10:59:14;3.55;;;2.60;;
28481;SDS011;15703;49.588;6.260;2023-05-20T11:01:45;2.92;;;2.50;;
28481;SDS011;15703;49.588;6.260;2023-05-20T11:04:08;3.13;;;2.30;;
28481;SDS011;15703;49.588;6.260;2023-05-20T11:06:31;2.75;;;2.55;;
28481;SDS011;15703;49.588;6.260;2023-05-20T11:08:53;4.93;;;2.70;;
28481;SDS011;15703;49.588;6.260;2023-05-20T11:11:16;3.17;;;2.47;;
28481;SDS011;15703;49.588;6.260;2023-05-20T11:13:39;5.28;;;2.63;;
28481;SDS011;15703;49.588;6.260;2023-05-20T11:16:01;5.28;;;2.67;;
28481;SDS011;15703;49.588;6.260;2023-05-20T11:18:26;3.08;;;2.42;;
28481;SDS011;15703;49.588;6.260;2023-05-20T11:20:52;3.83;;;2.47;;
28481;SDS011;15703;49.588;6.260;2023-05-20T11:23:16;2.67;;;2.30;;
28481;SDS011;15703;49.588;6.260;2023-05-20T11:25:38;2.50;;;2.28;;
28481;SDS011;15703;49.588;6.260;2023-05-20T11:28:01;5.78;;;2.60;;
28481;SDS011;15703;49.588;6.260;2023-05-20T11:30:24;6.43;;;2.63;;
28481;SDS011;15703;49.588;6.260;2023-05-20T11:32:56;2.60;;;2.40;;
28481;SDS011;15703;49.588;6.260;2023-05-20T11:35:23;2.47;;;2.28;;
28481;SDS011;15703;49.588;6.260;2023-05-20T11:37:55;3.30;;;2.40;;
28481;SDS011;15703;49.588;6.260;2023-05-20T11:40:18;3.45;;;2.10;;
28481;SDS011;15703;49.588;6.260;2023-05-20T11:42:47;2.47;;;2.25;;
28481;SDS011;15703;49.588;6.260;2023-05-20T11:45:12;2.97;;;2.38;;
28481;SDS011;15703;49.588;6.260;2023-05-20T11:47:34;2.60;;;2.40;;
28481;SDS011;15703;49.588;6.260;2023-05-20T11:49:57;2.90;;;2.17;;
28481;SDS011;15703;49.588;6.260;2023-05-20T11:52:19;2.38;;;2.17;;
28481;SDS011;15703;49.588;6.260;2023-05-20T11:54:49;2.22;;;2.03;;
28481;SDS011;15703;49.588;6.260;2023-05-20T11:57:12;4.68;;;2.15;;
28481;SDS011;15703;49.588;6.260;2023-05-20T11:59:34;3.33;;;2.38;;
28481;SDS011;15703;49.588;6.260;2023-05-20T12:01:57;3.45;;;2.00;;
28481;SDS011;15703;49.588;6.260;2023-05-20T12:04:19;4.03;;;2.35;;
28481;SDS011;15703;49.588;6.260;2023-05-20T12:06:42;2.55;;;2.30;;
28481;SDS011;15703;49.588;6.260;2023-05-20T12:09:05;3.80;;;2.28;;
28481;SDS011;15703;49.588;6.260;2023-05-20T12:11:29;2.83;;;2.30;;
28481;SDS011;15703;49.588;6.260;2023-05-20T12:13:52;2.88;;;2.38;;
28481;SDS011;15703;49.588;6.260;2023-05-20T12:16:15;2.97;;;2.10;;
28481;SDS011;15703;49.588;6.260;2023-05-20T12:18:37;2.33;;;2.10;;
28481;SDS011;15703;49.588;6.260;2023-05-20T12:21:00;4.03;;;2.33;;
28481;SDS011;15703;49.588;6.260;2023-05-20T12:23:22;2.28;;;2.08;;
28481;SDS011;15703;49.588;6.260;2023-05-20T12:25:44;4.10;;;2.08;;
28481;SDS011;15703;49.588;6.260;2023-05-20T12:28:10;5.70;;;2.60;;
28481;SDS011;15703;49.588;6.260;2023-05-20T12:30:32;2.30;;;2.10;;
28481;SDS011;15703;49.588;6.260;2023-05-20T12:32:55;3.13;;;2.00;;
28481;SDS011;15703;49.588;6.260;2023-05-20T12:35:23;4.25;;;2.20;;
28481;SDS011;15703;49.588;6.260;2023-05-20T12:37:45;3.13;;;1.83;;
28481;SDS011;15703;49.588;6.260;2023-05-20T12:40:09;3.05;;;2.20;;
28481;SDS011;15703;49.588;6.260;2023-05-20T12:42:31;2.15;;;1.95;;
28481;SDS011;15703;49.588;6.260;2023-05-20T12:44:54;1.98;;;1.77;;
28481;SDS011;15703;49.588;6.260;2023-05-20T12:47:16;3.45;;;1.90;;
28481;SDS011;15703;49.588;6.260;2023-05-20T12:49:39;3.75;;;2.15;;
28481;SDS011;15703;49.588;6.260;2023-05-20T12:52:01;2.85;;;2.20;;
28481;SDS011;15703;49.588;6.260;2023-05-20T12:54:32;2.92;;;2.30;;
28481;SDS011;15703;49.588;6.260;2023-05-20T12:56:54;2.28;;;2.08;;
28481;SDS011;15703;49.588;6.260;2023-05-20T12:59:17;2.72;;;2.20;;
28481;SDS011;15703;49.588;6.260;2023-05-20T13:01:39;5.10;;;2.40;;
28481;SDS011;15703;49.588;6.260;2023-05-20T13:04:02;3.58;;;2.00;;
28481;SDS011;15703;49.588;6.260;2023-05-20T13:06:24;2.05;;;1.80;;
28481;SDS011;15703;49.588;6.260;2023-05-20T13:08:46;2.67;;;2.05;;
28481;SDS011;15703;49.588;6.260;2023-05-20T13:11:09;2.20;;;2.00;;
28481;SDS011;15703;49.588;6.260;2023-05-20T13:13:31;3.75;;;2.53;;
28481;SDS011;15703;49.588;6.260;2023-05-20T13:15:54;3.80;;;2.30;;
28481;SDS011;15703;49.588;6.260;2023-05-20T13:18:16;3.05;;;2.17;;
28481;SDS011;15703;49.588;6.260;2023-05-20T13:20:39;2.88;;;2.15;;
28481;SDS011;15703;49.588;6.260;2023-05-20T13:23:02;3.17;;;2.05;;
28481;SDS011;15703;49.588;6.260;2023-05-20T13:25:24;2.42;;;2.22;;
28481;SDS011;15703;49.588;6.260;2023-05-20T13:27:48;2.25;;;2.00;;
28481;SDS011;15703;49.588;6.260;2023-05-20T13:30:11;2.20;;;1.90;;
28481;SDS011;15703;49.588;6.260;2023-05-20T13:32:33;2.75;;;2.10;;
28481;SDS011;15703;49.588;6.260;2023-05-20T13:34:55;9.57;;;2.33;;
28481;SDS011;15703;49.588;6.260;2023-05-20T13:37:20;2.58;;;2.38;;
28481;SDS011;15703;49.588;6.260;2023-05-20T13:39:42;3.17;;;2.13;;
28481;SDS011;15703;49.588;6.260;2023-05-20T13:42:05;2.88;;;2.53;;
28481;SDS011;15703;49.588;6.260;2023-05-20T13:44:27;2.55;;;2.17;;
28481;SDS011;15703;49.588;6.260;2023-05-20T13:46:52;2.78;;;2.47;;
28481;SDS011;15703;49.588;6.260;2023-05-20T13:49:14;3.85;;;2.60;;
28481;SDS011;15703;49.588;6.260;2023-05-20T13:51:36;2.45;;;2.25;;
28481;SDS011;15703;49.588;6.260;2023-05-20T13:53:59;2.45;;;2.25;;
28481;SDS011;15703;49.588;6.260;2023-05-20T13:56:22;2.83;;;2.50;;
28481;SDS011;15703;49.588;6.260;2023-05-20T13:58:44;3.97;;;2.38;;
28481;SDS011;15703;49.588;6.260;2023-05-20T14:01:06;2.47;;;1.90;;
28481;SDS011;15703;49.588;6.260;2023-05-20T14:03:29;2.95;;;2.05;;
28481;SDS011;15703;49.588;6.260;2023-05-20T14:05:53;3.28;;;2.28;;
28481;SDS011;15703;49.588;6.260;2023-05-20T14:08:15;2.65;;;2.45;;
28481;SDS011;15703;49.588;6.260;2023-05-20T14:10:38;3.58;;;2.72;;
28481;SDS011;15703;49.588;6.260;2023-05-20T14:13:00;4.32;;;2.70;;
28481;SDS011;15703;49.588;6.260;2023-05-20T14:15:23;2.60;;;2.30;;
28481;SDS011;15703;49.588;6.260;2023-05-20T14:17:46;4.50;;;2.28;;
28481;SDS011;15703;49.588;6.260;2023-05-20T14:20:09;4.68;;;2.72;;
28481;SDS011;15703;49.588;6.260;2023-05-20T14:22:31;4.70;;;2.67;;
28481;SDS011;15703;49.588;6.260;2023-05-20T14:24:54;2.28;;;2.03;;
28481;SDS011;15703;49.588;6.260;2023-05-20T14:27:16;3.10;;;2.63;;
28481;SDS011;15703;49.588;6.260;2023-05-20T14:29:38;2.70;;;2.50;;
28481;SDS011;15703;49.588;6.260;2023-05-20T14:32:01;3.10;;;2.83;;
28481;SDS011;15703;49.588;6.260;2023-05-20T14:34:25;2.75;;;2.45;;
28481;SDS011;15703;49.588;6.260;2023-05-20T14:36:47;2.22;;;2.05;;
28481;SDS011;15703;49.588;6.260;2023-05-20T14:39:10;3.72;;;2.83;;
28481;SDS011;15703;49.588;6.260;2023-05-20T14:41:32;2.88;;;2.67;;
28481;SDS011;15703;49.588;6.260;2023-05-20T14:43:57;3.50;;;2.97;;
28481;SDS011;15703;49.588;6.260;2023-05-20T14:46:20;2.55;;;2.35;;
28481;SDS011;15703;49.588;6.260;2023-05-20T14:48:43;5.55;;;3.00;;
28481;SDS011;15703;49.588;6.260;2023-05-20T14:51:05;2.72;;;2.53;;
28481;SDS011;15703;49.588;6.260;2023-05-20T14:53:27;2.50;;;2.28;;
28481;SDS011;15703;49.588;6.260;2023-05-20T14:55:50;2.63;;;2.42;;
28481;SDS011;15703;49.588;6.260;2023-05-20T14:58:12;2.40;;;2.20;;
28481;SDS011;15703;49.588;6.260;2023-05-20T15:00:35;5.70;;;2.42;;
28481;SDS011;15703;49.588;6.260;2023-05-20T15:02:57;3.67;;;2.50;;
28481;SDS011;15703;49.588;6.260;2023-05-20T15:05:20;2.80;;;2.53;;
28481;SDS011;15703;49.588;6.260;2023-05-20T15:07:42;4.55;;;2.60;;
28481;SDS011;15703;49.588;6.260;2023-05-20T15:10:07;4.57;;;2.53;;
28481;SDS011;15703;49.588;6.260;2023-05-20T15:12:29;3.55;;;2.60;;
28481;SDS011;15703;49.588;6.260;2023-05-20T15:14:52;2.85;;;2.58;;
28481;SDS011;15703;49.588;6.260;2023-05-20T15:17:14;3.25;;;2.75;;
28481;SDS011;15703;49.588;6.260;2023-05-20T15:19:37;3.95;;;2.70;;
28481;SDS011;15703;49.588;6.260;2023-05-20T15:22:02;3.25;;;2.95;;
28481;SDS011;15703;49.588;6.260;2023-05-20T15:24:24;3.40;;;2.63;;
28481;SDS011;15703;49.588;6.260;2023-05-20T15:26:47;3.50;;;2.50;;
28481;SDS011;15703;49.588;6.260;2023-05-20T15:29:09;3.40;;;3.10;;
28481;SDS011;15703;49.588;6.260;2023-05-20T15:31:31;5.07;;;3.13;;
28481;SDS011;15703;49.588;6.260;2023-05-20T15:33:54;3.25;;;2.95;;
28481;SDS011;15703;49.588;6.260;2023-05-20T15:36:16;3.83;;;2.95;;
28481;SDS011;15703;49.588;6.260;2023-05-20T15:38:39;3.40;;;3.10;;
28481;SDS011;15703;49.588;6.260;2023-05-20T15:41:01;5.15;;;3.00;;
28481;SDS011;15703;49.588;6.260;2023-05-20T15:43:23;3.92;;;3.50;;
28481;SDS011;15703;49.588;6.260;2023-05-20T15:45:46;3.25;;;2.95;;
28481;SDS011;15703;49.588;6.260;2023-05-20T15:48:09;3.33;;;2.67;;